sensor_id;sensor_type;location;lat;lon;timestamp;P1;durP1;ratioP1;P2;durP2;ratioP2
3847;SDS011;1939;48.720;9.166;2023-07-08T00:00:14;17.43;;;7.40;;
3847;SDS011;1939;48.720;9.166;2023-07-08T00:02:40;14.13;;;7.87;;
3847;SDS011;1939;48.720;9.166;2023-07-08T00:05:07;13.33;;;7.40;;
3847;SDS011;1939;48.720;9.166;2023-07-08T00:07:32;14.37;;;7.30;;
3847;SDS011;1939;48.720;9.166;2023-07-08T00:09:58;14.73;;;8.40;;
3847;SDS011;1939;48.720;9.166;2023-07-08T00:12:23;12.70;;;7.20;;
3847;SDS011;1939;48.720;9.166;2023-07-08T00:14:48;11.20;;;7.23;;
3847;SDS011;1939;48.720;9.166;2023-07-08T00:17:13;13.93;;;7.17;;
3847;SDS011;1939;48.720;9.166;2023-07-08T00:19:39;13.00;;;7.93;;
3847;SDS011;1939;48.720;9.166;2023-07-08T00:22:08;11.40;;;6.83;;
3847;SDS011;1939;48.720;9.166;2023-07-08T00:24:35;13.30;;;7.10;;
3847;SDS011;1939;48.720;9.166;2023-07-08T00:27:00;13.67;;;7.13;;
3847;SDS011;1939;48.720;9.166;2023-07-08T00:29:26;11.63;;;7.33;;
3847;SDS011;1939;48.720;9.166;2023-07-08T00:31:51;12.40;;;7.00;;
3847;SDS011;1939;48.720;9.166;2023-07-08T00:34:16;11.97;;;7.00;;
3847;SDS011;1939;48.720;9.166;2023-07-08T00:36:41;12.50;;;7.17;;
3847;SDS011;1939;48.720;9.166;2023-07-08T00:39:13;13.40;;;7.03;;
3847;SDS011;1939;48.720;9.166;2023-07-08T00:41:39;12.30;;;7.03;;
3847;SDS011;1939;48.720;9.166;2023-07-08T00:44:07;15.13;;;6.97;;
3847;SDS011;1939;48.720;9.166;2023-07-08T00:46:40;18.77;;;7.63;;
3847;SDS011;1939;48.720;9.166;2023-07-08T00:51:33;11.20;;;7.10;;
3847;SDS011;1939;48.720;9.166;2023-07-08T00:53:58;13.53;;;6.53;;
3847;SDS011;1939;48.720;9.166;2023-07-08T00:56:29;14.10;;;7.93;;
3847;SDS011;1939;48.720;9.166;2023-07-08T00:58:56;12.00;;;7.50;;
3847;SDS011;1939;48.720;9.166;2023-07-08T01:01:22;14.00;;;6.90;;
3847;SDS011;1939;48.720;9.166;2023-07-08T01:03:56;9.93;;;5.40;;
3847;SDS011;1939;48.720;9.166;2023-07-08T01:06:23;14.20;;;8.17;;
3847;SDS011;1939;48.720;9.166;2023-07-08T01:08:56;9.67;;;6.63;;
3847;SDS011;1939;48.720;9.166;2023-07-08T01:11:22;17.40;;;8.30;;
3847;SDS011;1939;48.720;9.166;2023-07-08T01:16:51;11.30;;;7.03;;
3847;SDS011;1939;48.720;9.166;2023-07-08T01:19:17;12.50;;;7.00;;
3847;SDS011;1939;48.720;9.166;2023-07-08T01:24:18;12.50;;;7.27;;
3847;SDS011;1939;48.720;9.166;2023-07-08T01:26:43;15.17;;;8.53;;
3847;SDS011;1939;48.720;9.166;2023-07-08T01:29:09;12.93;;;7.40;;
3847;SDS011;1939;48.720;9.166;2023-07-08T01:31:35;10.27;;;6.17;;
3847;SDS011;1939;48.720;9.166;2023-07-08T01:34:00;15.93;;;8.60;;
3847;SDS011;1939;48.720;9.166;2023-07-08T01:36:26;12.13;;;6.30;;
3847;SDS011;1939;48.720;9.166;2023-07-08T01:38:54;12.10;;;6.50;;
3847;SDS011;1939;48.720;9.166;2023-07-08T01:41:19;12.40;;;6.93;;
3847;SDS011;1939;48.720;9.166;2023-07-08T01:43:45;11.10;;;6.90;;
3847;SDS011;1939;48.720;9.166;2023-07-08T01:46:11;12.20;;;7.47;;
3847;SDS011;1939;48.720;9.166;2023-07-08T01:48:39;14.30;;;7.60;;
3847;SDS011;1939;48.720;9.166;2023-07-08T01:51:06;12.00;;;7.40;;
3847;SDS011;1939;48.720;9.166;2023-07-08T01:53:33;11.13;;;6.73;;
3847;SDS011;1939;48.720;9.166;2023-07-08T01:55:58;14.77;;;7.60;;
3847;SDS011;1939;48.720;9.166;2023-07-08T01:58:24;18.10;;;7.80;;
3847;SDS011;1939;48.720;9.166;2023-07-08T02:00:50;13.03;;;6.80;;
3847;SDS011;1939;48.720;9.166;2023-07-08T02:03:15;12.37;;;7.60;;
3847;SDS011;1939;48.720;9.166;2023-07-08T02:05:40;26.17;;;8.07;;
3847;SDS011;1939;48.720;9.166;2023-07-08T02:08:06;12.03;;;7.30;;
3847;SDS011;1939;48.720;9.166;2023-07-08T02:10:31;16.50;;;7.60;;
3847;SDS011;1939;48.720;9.166;2023-07-08T02:12:56;11.07;;;7.73;;
3847;SDS011;1939;48.720;9.166;2023-07-08T02:15:21;14.80;;;7.90;;
3847;SDS011;1939;48.720;9.166;2023-07-08T02:17:47;14.53;;;8.37;;
3847;SDS011;1939;48.720;9.166;2023-07-08T02:20:12;15.40;;;7.90;;
3847;SDS011;1939;48.720;9.166;2023-07-08T02:22:37;13.50;;;6.57;;
3847;SDS011;1939;48.720;9.166;2023-07-08T02:25:02;12.83;;;6.63;;
3847;SDS011;1939;48.720;9.166;2023-07-08T02:27:28;14.33;;;7.60;;
3847;SDS011;1939;48.720;9.166;2023-07-08T02:29:53;11.57;;;7.03;;
3847;SDS011;1939;48.720;9.166;2023-07-08T02:32:19;12.73;;;7.70;;
3847;SDS011;1939;48.720;9.166;2023-07-08T02:34:44;15.20;;;8.37;;
3847;SDS011;1939;48.720;9.166;2023-07-08T02:37:09;14.53;;;7.63;;
3847;SDS011;1939;48.720;9.166;2023-07-08T02:39:34;9.83;;;6.23;;
3847;SDS011;1939;48.720;9.166;2023-07-08T02:42:00;14.10;;;7.70;;
3847;SDS011;1939;48.720;9.166;2023-07-08T02:44:26;13.23;;;7.93;;
3847;SDS011;1939;48.720;9.166;2023-07-08T02:46:51;14.30;;;7.60;;
3847;SDS011;1939;48.720;9.166;2023-07-08T02:49:16;14.03;;;7.63;;
3847;SDS011;1939;48.720;9.166;2023-07-08T02:51:42;17.90;;;7.33;;
3847;SDS011;1939;48.720;9.166;2023-07-08T02:54:07;18.47;;;8.50;;
3847;SDS011;1939;48.720;9.166;2023-07-08T02:56:32;14.50;;;7.90;;
3847;SDS011;1939;48.720;9.166;2023-07-08T02:58:57;13.07;;;7.73;;
3847;SDS011;1939;48.720;9.166;2023-07-08T03:01:23;13.57;;;7.90;;
3847;SDS011;1939;48.720;9.166;2023-07-08T03:03:48;13.13;;;7.40;;
3847;SDS011;1939;48.720;9.166;2023-07-08T03:06:14;19.10;;;7.77;;
3847;SDS011;1939;48.720;9.166;2023-07-08T03:08:40;13.63;;;7.70;;
3847;SDS011;1939;48.720;9.166;2023-07-08T03:11:06;15.23;;;7.80;;
3847;SDS011;1939;48.720;9.166;2023-07-08T03:13:32;14.63;;;7.93;;
3847;SDS011;1939;48.720;9.166;2023-07-08T03:15:57;12.90;;;7.57;;
3847;SDS011;1939;48.720;9.166;2023-07-08T03:18:24;12.07;;;7.43;;
3847;SDS011;1939;48.720;9.166;2023-07-08T03:20:51;13.67;;;7.20;;
3847;SDS011;1939;48.720;9.166;2023-07-08T03:23:16;12.33;;;6.87;;
3847;SDS011;1939;48.720;9.166;2023-07-08T03:25:42;12.00;;;7.70;;
3847;SDS011;1939;48.720;9.166;2023-07-08T03:28:07;16.90;;;7.80;;
3847;SDS011;1939;48.720;9.166;2023-07-08T03:30:39;14.00;;;7.73;;
3847;SDS011;1939;48.720;9.166;2023-07-08T03:33:04;11.67;;;7.30;;
3847;SDS011;1939;48.720;9.166;2023-07-08T03:35:29;13.80;;;7.77;;
3847;SDS011;1939;48.720;9.166;2023-07-08T03:37:54;18.83;;;7.23;;
3847;SDS011;1939;48.720;9.166;2023-07-08T03:40:19;14.47;;;8.53;;
3847;SDS011;1939;48.720;9.166;2023-07-08T03:42:45;16.50;;;7.67;;
3847;SDS011;1939;48.720;9.166;2023-07-08T03:45:10;14.97;;;7.80;;
3847;SDS011;1939;48.720;9.166;2023-07-08T03:47:35;15.73;;;7.70;;
3847;SDS011;1939;48.720;9.166;2023-07-08T03:50:01;11.50;;;6.60;;
3847;SDS011;1939;48.720;9.166;2023-07-08T03:52:26;12.47;;;7.47;;
3847;SDS011;1939;48.720;9.166;2023-07-08T03:54:51;14.43;;;6.40;;
3847;SDS011;1939;48.720;9.166;2023-07-08T03:57:16;14.03;;;7.30;;
3847;SDS011;1939;48.720;9.166;2023-07-08T03:59:41;14.43;;;7.17;;
3847;SDS011;1939;48.720;9.166;2023-07-08T04:02:08;11.30;;;7.10;;
3847;SDS011;1939;48.720;9.166;2023-07-08T04:04:35;14.57;;;7.90;;
3847;SDS011;1939;48.720;9.166;2023-07-08T04:07:00;12.07;;;7.07;;
3847;SDS011;1939;48.720;9.166;2023-07-08T04:09:25;13.60;;;6.60;;
3847;SDS011;1939;48.720;9.166;2023-07-08T04:11:50;14.00;;;7.30;;
3847;SDS011;1939;48.720;9.166;2023-07-08T04:14:16;13.73;;;7.00;;
3847;SDS011;1939;48.720;9.166;2023-07-08T04:16:45;17.40;;;7.20;;
3847;SDS011;1939;48.720;9.166;2023-07-08T04:19:15;13.23;;;7.60;;
3847;SDS011;1939;48.720;9.166;2023-07-08T04:21:40;14.83;;;6.77;;
3847;SDS011;1939;48.720;9.166;2023-07-08T04:24:07;12.20;;;7.37;;
3847;SDS011;1939;48.720;9.166;2023-07-08T04:26:33;12.93;;;7.40;;
3847;SDS011;1939;48.720;9.166;2023-07-08T04:29:00;13.83;;;6.83;;
3847;SDS011;1939;48.720;9.166;2023-07-08T04:31:25;18.93;;;7.90;;
3847;SDS011;1939;48.720;9.166;2023-07-08T04:33:51;15.03;;;6.93;;
3847;SDS011;1939;48.720;9.166;2023-07-08T04:36:16;12.40;;;7.53;;
3847;SDS011;1939;48.720;9.166;2023-07-08T04:38:41;13.73;;;7.93;;
3847;SDS011;1939;48.720;9.166;2023-07-08T04:41:11;22.60;;;8.30;;
3847;SDS011;1939;48.720;9.166;2023-07-08T04:43:36;11.93;;;6.57;;
3847;SDS011;1939;48.720;9.166;2023-07-08T04:46:01;11.60;;;7.23;;
3847;SDS011;1939;48.720;9.166;2023-07-08T04:48:27;15.00;;;7.90;;
3847;SDS011;1939;48.720;9.166;2023-07-08T04:50:52;12.27;;;7.30;;
3847;SDS011;1939;48.720;9.166;2023-07-08T04:53:18;11.10;;;6.90;;
3847;SDS011;1939;48.720;9.166;2023-07-08T04:55:53;15.57;;;7.73;;
3847;SDS011;1939;48.720;9.166;2023-07-08T04:58:19;11.63;;;7.40;;
3847;SDS011;1939;48.720;9.166;2023-07-08T05:00:44;13.33;;;7.47;;
3847;SDS011;1939;48.720;9.166;2023-07-08T05:03:09;13.70;;;6.80;;
3847;SDS011;1939;48.720;9.166;2023-07-08T05:05:34;17.43;;;7.53;;
3847;SDS011;1939;48.720;9.166;2023-07-08T05:08:00;16.47;;;7.80;;
3847;SDS011;1939;48.720;9.166;2023-07-08T05:10:25;12.27;;;7.47;;
3847;SDS011;1939;48.720;9.166;2023-07-08T05:12:50;13.33;;;7.70;;
3847;SDS011;1939;48.720;9.166;2023-07-08T05:15:16;18.73;;;8.63;;
3847;SDS011;1939;48.720;9.166;2023-07-08T05:17:41;13.93;;;7.50;;
3847;SDS011;1939;48.720;9.166;2023-07-08T05:20:07;11.70;;;7.03;;
3847;SDS011;1939;48.720;9.166;2023-07-08T05:22:33;12.20;;;7.60;;
3847;SDS011;1939;48.720;9.166;2023-07-08T05:24:58;14.50;;;7.83;;
3847;SDS011;1939;48.720;9.166;2023-07-08T05:27:24;13.93;;;7.77;;
3847;SDS011;1939;48.720;9.166;2023-07-08T05:29:49;13.63;;;7.37;;
3847;SDS011;1939;48.720;9.166;2023-07-08T05:32:15;18.80;;;7.47;;
3847;SDS011;1939;48.720;9.166;2023-07-08T05:34:40;13.43;;;7.10;;
3847;SDS011;1939;48.720;9.166;2023-07-08T05:37:06;11.80;;;7.13;;
3847;SDS011;1939;48.720;9.166;2023-07-08T05:39:31;13.67;;;7.30;;
3847;SDS011;1939;48.720;9.166;2023-07-08T05:41:56;9.50;;;5.90;;
3847;SDS011;1939;48.720;9.166;2023-07-08T05:44:21;13.33;;;8.10;;
3847;SDS011;1939;48.720;9.166;2023-07-08T05:46:47;13.27;;;7.93;;
3847;SDS011;1939;48.720;9.166;2023-07-08T05:49:12;12.30;;;6.80;;
3847;SDS011;1939;48.720;9.166;2023-07-08T05:51:38;10.77;;;7.40;;
3847;SDS011;1939;48.720;9.166;2023-07-08T05:54:03;13.30;;;8.27;;
3847;SDS011;1939;48.720;9.166;2023-07-08T05:56:28;10.60;;;6.63;;
3847;SDS011;1939;48.720;9.166;2023-07-08T05:58:55;11.23;;;7.00;;
3847;SDS011;1939;48.720;9.166;2023-07-08T06:01:21;11.33;;;7.77;;
3847;SDS011;1939;48.720;9.166;2023-07-08T06:03:46;13.87;;;7.73;;
3847;SDS011;1939;48.720;9.166;2023-07-08T06:06:11;17.00;;;8.13;;
3847;SDS011;1939;48.720;9.166;2023-07-08T06:08:37;15.13;;;7.87;;
3847;SDS011;1939;48.720;9.166;2023-07-08T06:11:02;11.00;;;7.30;;
3847;SDS011;1939;48.720;9.166;2023-07-08T06:13:27;10.37;;;6.27;;
3847;SDS011;1939;48.720;9.166;2023-07-08T06:15:52;13.77;;;6.90;;
3847;SDS011;1939;48.720;9.166;2023-07-08T06:18:17;14.50;;;7.23;;
3847;SDS011;1939;48.720;9.166;2023-07-08T06:20:50;10.40;;;7.10;;
3847;SDS011;1939;48.720;9.166;2023-07-08T06:23:15;10.37;;;6.83;;
3847;SDS011;1939;48.720;9.166;2023-07-08T06:25:40;11.87;;;6.90;;
3847;SDS011;1939;48.720;9.166;2023-07-08T06:28:05;14.73;;;7.20;;
3847;SDS011;1939;48.720;9.166;2023-07-08T06:30:31;12.67;;;7.27;;
3847;SDS011;1939;48.720;9.166;2023-07-08T06:32:56;11.03;;;7.37;;
3847;SDS011;1939;48.720;9.166;2023-07-08T06:35:21;13.27;;;6.40;;
3847;SDS011;1939;48.720;9.166;2023-07-08T06:37:46;9.20;;;7.10;;
3847;SDS011;1939;48.720;9.166;2023-07-08T06:40:12;17.30;;;7.07;;
3847;SDS011;1939;48.720;9.166;2023-07-08T06:42:37;13.93;;;7.00;;
3847;SDS011;1939;48.720;9.166;2023-07-08T06:45:02;11.47;;;6.00;;
3847;SDS011;1939;48.720;9.166;2023-07-08T06:47:28;11.20;;;7.13;;
3847;SDS011;1939;48.720;9.166;2023-07-08T06:49:54;10.90;;;7.23;;
3847;SDS011;1939;48.720;9.166;2023-07-08T06:52:19;9.90;;;6.30;;
3847;SDS011;1939;48.720;9.166;2023-07-08T06:54:44;14.30;;;6.50;;
3847;SDS011;1939;48.720;9.166;2023-07-08T06:57:09;11.90;;;6.87;;
3847;SDS011;1939;48.720;9.166;2023-07-08T06:59:35;7.40;;;5.97;;
3847;SDS011;1939;48.720;9.166;2023-07-08T07:02:00;11.73;;;5.93;;
3847;SDS011;1939;48.720;9.166;2023-07-08T07:04:25;10.03;;;5.77;;
3847;SDS011;1939;48.720;9.166;2023-07-08T07:06:50;8.57;;;6.03;;
3847;SDS011;1939;48.720;9.166;2023-07-08T07:09:15;19.23;;;7.37;;
3847;SDS011;1939;48.720;9.166;2023-07-08T07:11:41;11.40;;;6.73;;
3847;SDS011;1939;48.720;9.166;2023-07-08T07:14:06;15.00;;;7.10;;
3847;SDS011;1939;48.720;9.166;2023-07-08T07:16:31;7.43;;;5.60;;
3847;SDS011;1939;48.720;9.166;2023-07-08T07:18:56;10.03;;;6.50;;
3847;SDS011;1939;48.720;9.166;2023-07-08T07:21:22;9.10;;;6.20;;
3847;SDS011;1939;48.720;9.166;2023-07-08T07:23:47;11.73;;;6.63;;
3847;SDS011;1939;48.720;9.166;2023-07-08T07:26:12;17.23;;;8.50;;
3847;SDS011;1939;48.720;9.166;2023-07-08T07:28:37;9.67;;;5.73;;
3847;SDS011;1939;48.720;9.166;2023-07-08T07:31:03;16.40;;;10.90;;
3847;SDS011;1939;48.720;9.166;2023-07-08T07:33:30;10.80;;;6.60;;
3847;SDS011;1939;48.720;9.166;2023-07-08T07:35:55;8.93;;;5.87;;
3847;SDS011;1939;48.720;9.166;2023-07-08T07:38:21;8.77;;;5.20;;
3847;SDS011;1939;48.720;9.166;2023-07-08T07:40:46;12.13;;;7.23;;
3847;SDS011;1939;48.720;9.166;2023-07-08T07:43:11;10.03;;;5.27;;
3847;SDS011;1939;48.720;9.166;2023-07-08T07:45:36;11.23;;;5.40;;
3847;SDS011;1939;48.720;9.166;2023-07-08T07:48:02;7.00;;;5.00;;
3847;SDS011;1939;48.720;9.166;2023-07-08T07:50:27;11.50;;;5.30;;
3847;SDS011;1939;48.720;9.166;2023-07-08T07:52:53;11.00;;;5.57;;
3847;SDS011;1939;48.720;9.166;2023-07-08T07:55:18;8.00;;;5.40;;
3847;SDS011;1939;48.720;9.166;2023-07-08T07:57:43;9.43;;;5.80;;
3847;SDS011;1939;48.720;9.166;2023-07-08T08:00:10;8.30;;;4.60;;
3847;SDS011;1939;48.720;9.166;2023-07-08T08:02:36;8.00;;;5.13;;
3847;SDS011;1939;48.720;9.166;2023-07-08T08:05:01;9.67;;;4.60;;
3847;SDS011;1939;48.720;9.166;2023-07-08T08:07:26;8.97;;;5.43;;
3847;SDS011;1939;48.720;9.166;2023-07-08T08:09:51;12.43;;;4.33;;
3847;SDS011;1939;48.720;9.166;2023-07-08T08:12:17;9.33;;;4.60;;
3847;SDS011;1939;48.720;9.166;2023-07-08T08:14:42;10.13;;;5.10;;
3847;SDS011;1939;48.720;9.166;2023-07-08T08:17:07;10.20;;;4.93;;
3847;SDS011;1939;48.720;9.166;2023-07-08T08:19:32;7.10;;;4.87;;
3847;SDS011;1939;48.720;9.166;2023-07-08T08:21:57;7.77;;;4.83;;
3847;SDS011;1939;48.720;9.166;2023-07-08T08:24:23;11.53;;;4.10;;
3847;SDS011;1939;48.720;9.166;2023-07-08T08:26:48;7.03;;;4.17;;
3847;SDS011;1939;48.720;9.166;2023-07-08T08:29:13;4.80;;;3.80;;
3847;SDS011;1939;48.720;9.166;2023-07-08T08:31:38;9.20;;;3.87;;
3847;SDS011;1939;48.720;9.166;2023-07-08T08:34:04;5.10;;;3.63;;
3847;SDS011;1939;48.720;9.166;2023-07-08T08:36:29;7.37;;;4.10;;
3847;SDS011;1939;48.720;9.166;2023-07-08T08:38:54;6.87;;;4.07;;
3847;SDS011;1939;48.720;9.166;2023-07-08T08:41:23;7.70;;;3.57;;
3847;SDS011;1939;48.720;9.166;2023-07-08T08:43:52;6.00;;;4.10;;
3847;SDS011;1939;48.720;9.166;2023-07-08T08:49:04;5.17;;;3.40;;
3847;SDS011;1939;48.720;9.166;2023-07-08T08:51:30;5.67;;;3.40;;
3847;SDS011;1939;48.720;9.166;2023-07-08T08:53:56;5.40;;;3.60;;
3847;SDS011;1939;48.720;9.166;2023-07-08T08:56:25;8.80;;;3.77;;
3847;SDS011;1939;48.720;9.166;2023-07-08T09:01:21;4.37;;;2.70;;
3847;SDS011;1939;48.720;9.166;2023-07-08T09:06:25;3.43;;;2.83;;
3847;SDS011;1939;48.720;9.166;2023-07-08T09:08:51;4.70;;;3.60;;
3847;SDS011;1939;48.720;9.166;2023-07-08T09:13:46;4.03;;;3.20;;
3847;SDS011;1939;48.720;9.166;2023-07-08T09:16:20;3.53;;;2.83;;
3847;SDS011;1939;48.720;9.166;2023-07-08T09:21:19;4.83;;;3.50;;
3847;SDS011;1939;48.720;9.166;2023-07-08T09:23:46;3.40;;;2.77;;
3847;SDS011;1939;48.720;9.166;2023-07-08T09:26:16;5.00;;;3.47;;
3847;SDS011;1939;48.720;9.166;2023-07-08T09:28:43;4.13;;;2.73;;
3847;SDS011;1939;48.720;9.166;2023-07-08T09:31:12;6.57;;;3.43;;
3847;SDS011;1939;48.720;9.166;2023-07-08T09:33:43;3.73;;;3.03;;
3847;SDS011;1939;48.720;9.166;2023-07-08T09:36:21;5.53;;;2.43;;
3847;SDS011;1939;48.720;9.166;2023-07-08T09:38:47;5.17;;;3.57;;
3847;SDS011;1939;48.720;9.166;2023-07-08T09:41:13;8.40;;;3.73;;
3847;SDS011;1939;48.720;9.166;2023-07-08T09:43:38;5.50;;;3.07;;
3847;SDS011;1939;48.720;9.166;2023-07-08T09:46:03;3.30;;;3.00;;
3847;SDS011;1939;48.720;9.166;2023-07-08T09:48:33;3.10;;;2.80;;
3847;SDS011;1939;48.720;9.166;2023-07-08T09:50:59;5.10;;;3.60;;
3847;SDS011;1939;48.720;9.166;2023-07-08T09:53:24;5.50;;;3.17;;
3847;SDS011;1939;48.720;9.166;2023-07-08T09:55:50;6.57;;;3.20;;
3847;SDS011;1939;48.720;9.166;2023-07-08T09:58:19;4.00;;;3.30;;
3847;SDS011;1939;48.720;9.166;2023-07-08T10:00:45;5.63;;;3.87;;
3847;SDS011;1939;48.720;9.166;2023-07-08T10:03:26;5.10;;;3.47;;
3847;SDS011;1939;48.720;9.166;2023-07-08T10:05:54;6.77;;;4.47;;
3847;SDS011;1939;48.720;9.166;2023-07-08T10:08:27;6.80;;;4.13;;
3847;SDS011;1939;48.720;9.166;2023-07-08T10:11:00;5.37;;;4.00;;
3847;SDS011;1939;48.720;9.166;2023-07-08T10:13:28;7.13;;;4.60;;
3847;SDS011;1939;48.720;9.166;2023-07-08T10:16:02;7.43;;;4.20;;
3847;SDS011;1939;48.720;9.166;2023-07-08T10:18:28;7.13;;;4.40;;
3847;SDS011;1939;48.720;9.166;2023-07-08T10:21:01;8.87;;;4.03;;
3847;SDS011;1939;48.720;9.166;2023-07-08T10:25:56;5.90;;;4.00;;
3847;SDS011;1939;48.720;9.166;2023-07-08T10:28:29;4.77;;;3.13;;
3847;SDS011;1939;48.720;9.166;2023-07-08T10:33:28;4.67;;;3.27;;
3847;SDS011;1939;48.720;9.166;2023-07-08T10:36:05;3.13;;;2.50;;
3847;SDS011;1939;48.720;9.166;2023-07-08T10:38:49;4.37;;;3.57;;
3847;SDS011;1939;48.720;9.166;2023-07-08T10:41:23;2.80;;;2.47;;
3847;SDS011;1939;48.720;9.166;2023-07-08T10:44:12;3.57;;;2.90;;
3847;SDS011;1939;48.720;9.166;2023-07-08T10:47:02;3.17;;;2.87;;
3847;SDS011;1939;48.720;9.166;2023-07-08T10:49:39;7.47;;;3.03;;
3847;SDS011;1939;48.720;9.166;2023-07-08T10:55:01;7.13;;;2.80;;
3847;SDS011;1939;48.720;9.166;2023-07-08T10:57:45;4.60;;;2.70;;
3847;SDS011;1939;48.720;9.166;2023-07-08T11:00:23;7.20;;;2.70;;
3847;SDS011;1939;48.720;9.166;2023-07-08T11:03:05;4.20;;;2.70;;
3847;SDS011;1939;48.720;9.166;2023-07-08T11:10:56;3.53;;;2.60;;
3847;SDS011;1939;48.720;9.166;2023-07-08T11:13:24;5.07;;;3.10;;
3847;SDS011;1939;48.720;9.166;2023-07-08T11:15:56;3.90;;;2.57;;
3847;SDS011;1939;48.720;9.166;2023-07-08T11:18:27;4.47;;;3.13;;
3847;SDS011;1939;48.720;9.166;2023-07-08T11:20:54;3.97;;;2.83;;
3847;SDS011;1939;48.720;9.166;2023-07-08T11:23:26;4.93;;;2.70;;
3847;SDS011;1939;48.720;9.166;2023-07-08T11:25:53;4.70;;;3.30;;
3847;SDS011;1939;48.720;9.166;2023-07-08T11:28:19;4.73;;;3.53;;
3847;SDS011;1939;48.720;9.166;2023-07-08T11:30:47;3.90;;;3.00;;
3847;SDS011;1939;48.720;9.166;2023-07-08T11:33:15;3.70;;;2.57;;
3847;SDS011;1939;48.720;9.166;2023-07-08T11:35:42;3.03;;;2.70;;
3847;SDS011;1939;48.720;9.166;2023-07-08T11:38:15;6.97;;;5.13;;
3847;SDS011;1939;48.720;9.166;2023-07-08T11:40:50;3.73;;;2.70;;
3847;SDS011;1939;48.720;9.166;2023-07-08T11:43:16;5.70;;;2.80;;
3847;SDS011;1939;48.720;9.166;2023-07-08T11:45:42;5.83;;;3.07;;
3847;SDS011;1939;48.720;9.166;2023-07-08T11:48:12;5.53;;;3.30;;
3847;SDS011;1939;48.720;9.166;2023-07-08T11:50:40;3.60;;;2.47;;
3847;SDS011;1939;48.720;9.166;2023-07-08T11:53:07;8.47;;;3.43;;
3847;SDS011;1939;48.720;9.166;2023-07-08T11:58:01;7.83;;;2.60;;
3847;SDS011;1939;48.720;9.166;2023-07-08T12:00:31;5.00;;;2.63;;
3847;SDS011;1939;48.720;9.166;2023-07-08T12:03:04;4.33;;;2.60;;
3847;SDS011;1939;48.720;9.166;2023-07-08T12:07:55;5.47;;;3.07;;
3847;SDS011;1939;48.720;9.166;2023-07-08T12:10:33;2.93;;;2.47;;
3847;SDS011;1939;48.720;9.166;2023-07-08T12:13:00;5.40;;;2.80;;
3847;SDS011;1939;48.720;9.166;2023-07-08T12:15:26;5.40;;;3.03;;
3847;SDS011;1939;48.720;9.166;2023-07-08T12:17:54;11.43;;;3.63;;
3847;SDS011;1939;48.720;9.166;2023-07-08T12:20:27;3.63;;;2.57;;
3847;SDS011;1939;48.720;9.166;2023-07-08T12:22:54;5.17;;;2.87;;
3847;SDS011;1939;48.720;9.166;2023-07-08T12:25:24;8.57;;;2.57;;
3847;SDS011;1939;48.720;9.166;2023-07-08T12:27:50;4.93;;;2.37;;
3847;SDS011;1939;48.720;9.166;2023-07-08T12:30:16;6.03;;;3.07;;
3847;SDS011;1939;48.720;9.166;2023-07-08T12:32:41;4.93;;;2.53;;
3847;SDS011;1939;48.720;9.166;2023-07-08T12:35:16;3.63;;;2.13;;
3847;SDS011;1939;48.720;9.166;2023-07-08T12:37:42;6.60;;;2.77;;
3847;SDS011;1939;48.720;9.166;2023-07-08T12:40:09;3.03;;;2.00;;
3847;SDS011;1939;48.720;9.166;2023-07-08T12:42:35;2.27;;;2.07;;
3847;SDS011;1939;48.720;9.166;2023-07-08T12:45:00;3.40;;;2.50;;
3847;SDS011;1939;48.720;9.166;2023-07-08T12:47:25;3.77;;;2.10;;
3847;SDS011;1939;48.720;9.166;2023-07-08T12:49:51;4.10;;;2.73;;
3847;SDS011;1939;48.720;9.166;2023-07-08T12:52:21;9.83;;;2.47;;
3847;SDS011;1939;48.720;9.166;2023-07-08T12:54:47;3.33;;;2.23;;
3847;SDS011;1939;48.720;9.166;2023-07-08T12:57:13;4.10;;;2.33;;
3847;SDS011;1939;48.720;9.166;2023-07-08T12:59:39;4.90;;;2.53;;
3847;SDS011;1939;48.720;9.166;2023-07-08T13:02:08;2.20;;;2.00;;
3847;SDS011;1939;48.720;9.166;2023-07-08T13:04:38;3.97;;;2.70;;
3847;SDS011;1939;48.720;9.166;2023-07-08T13:07:04;4.53;;;2.43;;
3847;SDS011;1939;48.720;9.166;2023-07-08T13:09:36;3.00;;;2.53;;
3847;SDS011;1939;48.720;9.166;2023-07-08T13:12:03;2.93;;;2.63;;
3847;SDS011;1939;48.720;9.166;2023-07-08T13:14:30;2.47;;;2.27;;
3847;SDS011;1939;48.720;9.166;2023-07-08T13:16:55;2.60;;;2.37;;
3847;SDS011;1939;48.720;9.166;2023-07-08T13:19:20;2.70;;;1.97;;
3847;SDS011;1939;48.720;9.166;2023-07-08T13:21:46;6.97;;;2.50;;
3847;SDS011;1939;48.720;9.166;2023-07-08T13:24:12;2.53;;;2.20;;
3847;SDS011;1939;48.720;9.166;2023-07-08T13:26:37;3.10;;;2.23;;
3847;SDS011;1939;48.720;9.166;2023-07-08T13:29:11;2.80;;;1.87;;
3847;SDS011;1939;48.720;9.166;2023-07-08T13:31:38;2.70;;;2.20;;
3847;SDS011;1939;48.720;9.166;2023-07-08T13:34:10;2.33;;;2.13;;
3847;SDS011;1939;48.720;9.166;2023-07-08T13:36:40;1.60;;;1.50;;
3847;SDS011;1939;48.720;9.166;2023-07-08T13:39:08;3.43;;;1.80;;
3847;SDS011;1939;48.720;9.166;2023-07-08T13:41:33;7.20;;;2.23;;
3847;SDS011;1939;48.720;9.166;2023-07-08T13:44:06;3.33;;;2.07;;
3847;SDS011;1939;48.720;9.166;2023-07-08T13:46:36;4.00;;;2.57;;
3847;SDS011;1939;48.720;9.166;2023-07-08T13:49:03;3.13;;;1.83;;
3847;SDS011;1939;48.720;9.166;2023-07-08T13:51:34;2.57;;;2.03;;
3847;SDS011;1939;48.720;9.166;2023-07-08T13:54:00;2.20;;;1.67;;
3847;SDS011;1939;48.720;9.166;2023-07-08T13:56:29;4.30;;;1.83;;
3847;SDS011;1939;48.720;9.166;2023-07-08T13:59:02;4.70;;;1.90;;
3847;SDS011;1939;48.720;9.166;2023-07-08T14:01:28;4.00;;;2.40;;
3847;SDS011;1939;48.720;9.166;2023-07-08T14:03:54;3.10;;;1.90;;
3847;SDS011;1939;48.720;9.166;2023-07-08T14:06:21;3.00;;;2.10;;
3847;SDS011;1939;48.720;9.166;2023-07-08T14:08:47;1.73;;;1.60;;
3847;SDS011;1939;48.720;9.166;2023-07-08T14:11:12;6.93;;;2.03;;
3847;SDS011;1939;48.720;9.166;2023-07-08T14:13:37;4.30;;;1.83;;
3847;SDS011;1939;48.720;9.166;2023-07-08T14:16:02;3.70;;;2.63;;
3847;SDS011;1939;48.720;9.166;2023-07-08T14:18:29;4.30;;;2.40;;
3847;SDS011;1939;48.720;9.166;2023-07-08T14:20:55;4.97;;;2.60;;
3847;SDS011;1939;48.720;9.166;2023-07-08T14:23:20;4.17;;;2.10;;
3847;SDS011;1939;48.720;9.166;2023-07-08T14:25:45;2.43;;;2.03;;
3847;SDS011;1939;48.720;9.166;2023-07-08T14:28:10;3.73;;;1.80;;
3847;SDS011;1939;48.720;9.166;2023-07-08T14:30:38;3.47;;;2.43;;
3847;SDS011;1939;48.720;9.166;2023-07-08T14:33:05;5.60;;;2.80;;
3847;SDS011;1939;48.720;9.166;2023-07-08T14:35:30;4.73;;;2.40;;
3847;SDS011;1939;48.720;9.166;2023-07-08T14:37:56;3.60;;;2.07;;
3847;SDS011;1939;48.720;9.166;2023-07-08T14:42:48;7.70;;;2.60;;
3847;SDS011;1939;48.720;9.166;2023-07-08T14:45:14;3.30;;;2.30;;
3847;SDS011;1939;48.720;9.166;2023-07-08T14:47:39;4.40;;;2.17;;
3847;SDS011;1939;48.720;9.166;2023-07-08T14:50:11;7.90;;;1.87;;
3847;SDS011;1939;48.720;9.166;2023-07-08T14:52:37;6.40;;;2.80;;
3847;SDS011;1939;48.720;9.166;2023-07-08T14:55:02;4.00;;;2.70;;
3847;SDS011;1939;48.720;9.166;2023-07-08T14:57:28;8.30;;;3.27;;
3847;SDS011;1939;48.720;9.166;2023-07-08T14:59:55;5.43;;;2.17;;
3847;SDS011;1939;48.720;9.166;2023-07-08T15:02:20;2.87;;;2.30;;
3847;SDS011;1939;48.720;9.166;2023-07-08T15:04:46;8.03;;;2.33;;
3847;SDS011;1939;48.720;9.166;2023-07-08T15:07:11;6.40;;;2.70;;
3847;SDS011;1939;48.720;9.166;2023-07-08T15:09:37;3.13;;;2.30;;
3847;SDS011;1939;48.720;9.166;2023-07-08T15:12:02;5.37;;;2.93;;
3847;SDS011;1939;48.720;9.166;2023-07-08T15:14:28;3.63;;;2.40;;
3847;SDS011;1939;48.720;9.166;2023-07-08T15:16:53;2.80;;;2.10;;
3847;SDS011;1939;48.720;9.166;2023-07-08T15:19:19;2.57;;;2.10;;
3847;SDS011;1939;48.720;9.166;2023-07-08T15:21:44;3.97;;;2.30;;
3847;SDS011;1939;48.720;9.166;2023-07-08T15:24:11;4.57;;;2.20;;
3847;SDS011;1939;48.720;9.166;2023-07-08T15:26:37;4.77;;;2.60;;
3847;SDS011;1939;48.720;9.166;2023-07-08T15:29:02;2.70;;;2.17;;
3847;SDS011;1939;48.720;9.166;2023-07-08T15:31:28;4.30;;;2.13;;
3847;SDS011;1939;48.720;9.166;2023-07-08T15:33:56;5.50;;;2.97;;
3847;SDS011;1939;48.720;9.166;2023-07-08T15:36:21;2.53;;;2.00;;
3847;SDS011;1939;48.720;9.166;2023-07-08T15:38:46;4.17;;;2.33;;
3847;SDS011;1939;48.720;9.166;2023-07-08T15:41:22;4.63;;;2.77;;
3847;SDS011;1939;48.720;9.166;2023-07-08T15:43:48;3.10;;;2.70;;
3847;SDS011;1939;48.720;9.166;2023-07-08T15:46:13;4.70;;;2.93;;